sensor_id;sensor_type;location;lat;lon;timestamp;pressure;altitude;pressure_sealevel;temperature
7389;BMP180;3735;50.136;11.062;2023-03-23T00:02:13;97480.00;;;11.80
7389;BMP180;3735;50.136;11.062;2023-03-23T00:04:40;97476.00;;;11.80
7389;BMP180;3735;50.136;11.062;2023-03-23T00:07:08;97481.00;;;11.80
7389;BMP180;3735;50.136;11.062;2023-03-23T00:09:34;97487.00;;;11.90
7389;BMP180;3735;50.136;11.062;2023-03-23T00:12:00;97470.00;;;11.80
7389;BMP180;3735;50.136;11.062;2023-03-23T00:14:32;97469.00;;;11.80
7389;BMP180;3735;50.136;11.062;2023-03-23T00:17:10;97458.00;;;11.90
7389;BMP180;3735;50.136;11.062;2023-03-23T00:19:39;97452.00;;;11.90
7389;BMP180;3735;50.136;11.062;2023-03-23T00:22:16;97442.00;;;12.10
7389;BMP180;3735;50.136;11.062;2023-03-23T00:24:47;97447.00;;;12.10
7389;BMP180;3735;50.136;11.062;2023-03-23T00:27:13;97450.00;;;12.30
7389;BMP180;3735;50.136;11.062;2023-03-23T00:29:40;97441.00;;;12.30
7389;BMP180;3735;50.136;11.062;2023-03-23T00:32:08;97438.00;;;12.50
7389;BMP180;3735;50.136;11.062;2023-03-23T00:34:39;97435.00;;;12.40
7389;BMP180;3735;50.136;11.062;2023-03-23T00:37:07;97422.00;;;12.60
7389;BMP180;3735;50.136;11.062;2023-03-23T00:39:34;97421.00;;;13.00
7389;BMP180;3735;50.136;11.062;2023-03-23T00:42:03;97431.00;;;13.20
7389;BMP180;3735;50.136;11.062;2023-03-23T00:44:31;97429.00;;;13.00
7389;BMP180;3735;50.136;11.062;2023-03-23T00:46:58;97428.00;;;12.80
7389;BMP180;3735;50.136;11.062;2023-03-23T00:49:25;97439.00;;;12.70
7389;BMP180;3735;50.136;11.062;2023-03-23T00:52:01;97423.00;;;12.60
7389;BMP180;3735;50.136;11.062;2023-03-23T00:54:27;97431.00;;;12.50
7389;BMP180;3735;50.136;11.062;2023-03-23T00:56:54;97424.00;;;12.40
7389;BMP180;3735;50.136;11.062;2023-03-23T00:59:20;97425.00;;;12.30
7389;BMP180;3735;50.136;11.062;2023-03-23T01:01:48;97427.00;;;12.20
7389;BMP180;3735;50.136;11.062;2023-03-23T01:04:15;97433.00;;;12.10
7389;BMP180;3735;50.136;11.062;2023-03-23T01:06:43;97427.00;;;12.10
7389;BMP180;3735;50.136;11.062;2023-03-23T01:09:15;97422.00;;;12.00
7389;BMP180;3735;50.136;11.062;2023-03-23T01:11:46;97411.00;;;12.00
7389;BMP180;3735;50.136;11.062;2023-03-23T01:14:15;97419.00;;;12.00
7389;BMP180;3735;50.136;11.062;2023-03-23T01:16:41;97419.00;;;12.00
7389;BMP180;3735;50.136;11.062;2023-03-23T01:19:08;97413.00;;;12.10
7389;BMP180;3735;50.136;11.062;2023-03-23T01:21:33;97411.00;;;12.30
7389;BMP180;3735;50.136;11.062;2023-03-23T01:24:00;97397.00;;;12.40
7389;BMP180;3735;50.136;11.062;2023-03-23T01:26:28;97399.00;;;12.70
7389;BMP180;3735;50.136;11.062;2023-03-23T01:28:54;97403.00;;;12.90
7389;BMP180;3735;50.136;11.062;2023-03-23T01:31:24;97407.00;;;13.00
7389;BMP180;3735;50.136;11.062;2023-03-23T01:33:51;97407.00;;;13.10
7389;BMP180;3735;50.136;11.062;2023-03-23T01:36:20;97398.00;;;13.10
7389;BMP180;3735;50.136;11.062;2023-03-23T01:38:48;97413.00;;;13.10
7389;BMP180;3735;50.136;11.062;2023-03-23T01:41:16;97408.00;;;12.90
7389;BMP180;3735;50.136;11.062;2023-03-23T01:44:08;97409.00;;;12.80
7389;BMP180;3735;50.136;11.062;2023-03-23T01:46:35;97403.00;;;12.70
7389;BMP180;3735;50.136;11.062;2023-03-23T01:49:16;97407.00;;;12.70
7389;BMP180;3735;50.136;11.062;2023-03-23T01:51:49;97402.00;;;12.60
7389;BMP180;3735;50.136;11.062;2023-03-23T01:54:18;97389.00;;;12.60
7389;BMP180;3735;50.136;11.062;2023-03-23T01:56:57;97387.00;;;13.10
7389;BMP180;3735;50.136;11.062;2023-03-23T01:59:26;97379.00;;;13.50
7389;BMP180;3735;50.136;11.062;2023-03-23T02:01:54;97378.00;;;13.60
7389;BMP180;3735;50.136;11.062;2023-03-23T02:04:22;97381.00;;;13.70
7389;BMP180;3735;50.136;11.062;2023-03-23T02:06:50;97374.00;;;13.80
7389;BMP180;3735;50.136;11.062;2023-03-23T02:09:18;97386.00;;;13.80
7389;BMP180;3735;50.136;11.062;2023-03-23T02:11:45;97375.00;;;13.90
7389;BMP180;3735;50.136;11.062;2023-03-23T02:14:13;97377.00;;;13.80
7389;BMP180;3735;50.136;11.062;2023-03-23T02:17:02;97387.00;;;13.80
7389;BMP180;3735;50.136;11.062;2023-03-23T02:20:17;97381.00;;;13.90
7389;BMP180;3735;50.136;11.062;2023-03-23T02:28:58;97359.00;;;13.80
7389;BMP180;3735;50.136;11.062;2023-03-23T02:32:09;97361.00;;;13.80
7389;BMP180;3735;50.136;11.062;2023-03-23T02:34:56;97354.00;;;13.80
7389;BMP180;3735;50.136;11.062;2023-03-23T02:37:33;97341.00;;;13.80
7389;BMP180;3735;50.136;11.062;2023-03-23T02:40:09;97350.00;;;13.80
7389;BMP180;3735;50.136;11.062;2023-03-23T02:42:41;97355.00;;;13.80
7389;BMP180;3735;50.136;11.062;2023-03-23T02:45:11;97331.00;;;13.80
7389;BMP180;3735;50.136;11.062;2023-03-23T02:47:39;97351.00;;;13.80
7389;BMP180;3735;50.136;11.062;2023-03-23T02:50:12;97349.00;;;13.80
7389;BMP180;3735;50.136;11.062;2023-03-23T02:52:43;97342.00;;;13.70
7389;BMP180;3735;50.136;11.062;2023-03-23T02:55:11;97349.00;;;13.70
7389;BMP180;3735;50.136;11.062;2023-03-23T02:57:38;97340.00;;;13.60
7389;BMP180;3735;50.136;11.062;2023-03-23T03:00:06;97340.00;;;13.60
7389;BMP180;3735;50.136;11.062;2023-03-23T03:02:38;97343.00;;;13.70
7389;BMP180;3735;50.136;11.062;2023-03-23T03:14:10;97337.00;;;13.60
7389;BMP180;3735;50.136;11.062;2023-03-23T03:19:26;97338.00;;;13.70
7389;BMP180;3735;50.136;11.062;2023-03-23T03:21:56;97334.00;;;13.70
7389;BMP180;3735;50.136;11.062;2023-03-23T03:24:26;97334.00;;;13.60
7389;BMP180;3735;50.136;11.062;2023-03-23T03:26:57;97334.00;;;13.60
7389;BMP180;3735;50.136;11.062;2023-03-23T03:29:36;97318.00;;;13.50
7389;BMP180;3735;50.136;11.062;2023-03-23T03:32:12;97332.00;;;13.40
7389;BMP180;3735;50.136;11.062;2023-03-23T03:34:38;97317.00;;;13.50
7389;BMP180;3735;50.136;11.062;2023-03-23T03:37:05;97315.00;;;13.50
7389;BMP180;3735;50.136;11.062;2023-03-23T03:39:35;97314.00;;;13.40
7389;BMP180;3735;50.136;11.062;2023-03-23T03:42:03;97326.00;;;13.30
7389;BMP180;3735;50.136;11.062;2023-03-23T03:44:29;97316.00;;;13.30
7389;BMP180;3735;50.136;11.062;2023-03-23T03:46:55;97321.00;;;13.30
7389;BMP180;3735;50.136;11.062;2023-03-23T03:49:21;97327.00;;;13.20
7389;BMP180;3735;50.136;11.062;2023-03-23T03:51:48;97329.00;;;13.20
7389;BMP180;3735;50.136;11.062;2023-03-23T03:54:14;97334.00;;;13.20
7389;BMP180;3735;50.136;11.062;2023-03-23T03:56:41;97328.00;;;13.20
7389;BMP180;3735;50.136;11.062;2023-03-23T03:59:09;97328.00;;;13.30
7389;BMP180;3735;50.136;11.062;2023-03-23T04:01:37;97328.00;;;13.30
7389;BMP180;3735;50.136;11.062;2023-03-23T04:04:04;97320.00;;;13.40
7389;BMP180;3735;50.136;11.062;2023-03-23T04:06:33;97326.00;;;13.40
7389;BMP180;3735;50.136;11.062;2023-03-23T04:09:03;97334.00;;;13.50
7389;BMP180;3735;50.136;11.062;2023-03-23T04:11:32;97329.00;;;13.50
7389;BMP180;3735;50.136;11.062;2023-03-23T04:13:58;97329.00;;;13.50
7389;BMP180;3735;50.136;11.062;2023-03-23T04:16:24;97327.00;;;13.60
7389;BMP180;3735;50.136;11.062;2023-03-23T04:18:51;97319.00;;;13.70
7389;BMP180;3735;50.136;11.062;2023-03-23T04:21:17;97317.00;;;13.70
7389;BMP180;3735;50.136;11.062;2023-03-23T04:23:43;97319.00;;;13.60
7389;BMP180;3735;50.136;11.062;2023-03-23T04:26:09;97315.00;;;13.60
7389;BMP180;3735;50.136;11.062;2023-03-23T04:28:39;97313.00;;;13.60
7389;BMP180;3735;50.136;11.062;2023-03-23T04:31:06;97323.00;;;13.50
7389;BMP180;3735;50.136;11.062;2023-03-23T04:33:32;97324.00;;;13.50
7389;BMP180;3735;50.136;11.062;2023-03-23T04:36:00;97320.00;;;13.50
7389;BMP180;3735;50.136;11.062;2023-03-23T04:38:28;97320.00;;;13.40
7389;BMP180;3735;50.136;11.062;2023-03-23T04:40:58;97317.00;;;13.50
7389;BMP180;3735;50.136;11.062;2023-03-23T04:43:26;97322.00;;;13.50
7389;BMP180;3735;50.136;11.062;2023-03-23T04:45:54;97328.00;;;13.50
7389;BMP180;3735;50.136;11.062;2023-03-23T04:48:25;97329.00;;;13.40
7389;BMP180;3735;50.136;11.062;2023-03-23T04:50:52;97327.00;;;13.30
7389;BMP180;3735;50.136;11.062;2023-03-23T04:53:18;97321.00;;;13.20
7389;BMP180;3735;50.136;11.062;2023-03-23T04:55:44;97328.00;;;13.20
7389;BMP180;3735;50.136;11.062;2023-03-23T04:58:11;97318.00;;;13.10
7389;BMP180;3735;50.136;11.062;2023-03-23T05:00:41;97308.00;;;13.10
7389;BMP180;3735;50.136;11.062;2023-03-23T05:03:10;97328.00;;;13.20
7389;BMP180;3735;50.136;11.062;2023-03-23T05:05:36;97326.00;;;13.20
7389;BMP180;3735;50.136;11.062;2023-03-23T05:08:03;97320.00;;;13.20
7389;BMP180;3735;50.136;11.062;2023-03-23T05:10:29;97326.00;;;13.30
7389;BMP180;3735;50.136;11.062;2023-03-23T05:12:55;97319.00;;;13.30
7389;BMP180;3735;50.136;11.062;2023-03-23T05:15:21;97329.00;;;13.40
7389;BMP180;3735;50.136;11.062;2023-03-23T05:17:47;97331.00;;;13.40
7389;BMP180;3735;50.136;11.062;2023-03-23T05:20:16;97333.00;;;13.40
7389;BMP180;3735;50.136;11.062;2023-03-23T05:22:46;97334.00;;;13.50
7389;BMP180;3735;50.136;11.062;2023-03-23T05:25:17;97327.00;;;13.60
7389;BMP180;3735;50.136;11.062;2023-03-23T05:27:46;97324.00;;;13.50
7389;BMP180;3735;50.136;11.062;2023-03-23T05:30:20;97329.00;;;13.60
7389;BMP180;3735;50.136;11.062;2023-03-23T05:32:48;97333.00;;;13.50
7389;BMP180;3735;50.136;11.062;2023-03-23T05:35:17;97331.00;;;13.50
7389;BMP180;3735;50.136;11.062;2023-03-23T05:37:44;97340.00;;;13.60
7389;BMP180;3735;50.136;11.062;2023-03-23T05:40:11;97325.00;;;13.60
7389;BMP180;3735;50.136;11.062;2023-03-23T05:42:39;97331.00;;;13.60
7389;BMP180;3735;50.136;11.062;2023-03-23T05:45:09;97340.00;;;13.60
7389;BMP180;3735;50.136;11.062;2023-03-23T05:47:37;97331.00;;;13.60
7389;BMP180;3735;50.136;11.062;2023-03-23T05:50:04;97342.00;;;13.60
7389;BMP180;3735;50.136;11.062;2023-03-23T05:52:33;97337.00;;;13.60
7389;BMP180;3735;50.136;11.062;2023-03-23T05:55:01;97334.00;;;13.60
7389;BMP180;3735;50.136;11.062;2023-03-23T05:57:29;97341.00;;;13.60
7389;BMP180;3735;50.136;11.062;2023-03-23T05:59:56;97345.00;;;13.60
7389;BMP180;3735;50.136;11.062;2023-03-23T06:02:24;97347.00;;;13.60
7389;BMP180;3735;50.136;11.062;2023-03-23T06:04:50;97341.00;;;13.70
7389;BMP180;3735;50.136;11.062;2023-03-23T06:07:25;97335.00;;;13.80
7389;BMP180;3735;50.136;11.062;2023-03-23T06:09:52;97336.00;;;13.60
7389;BMP180;3735;50.136;11.062;2023-03-23T06:12:18;97336.00;;;13.70
7389;BMP180;3735;50.136;11.062;2023-03-23T06:14:48;97339.00;;;13.60
7389;BMP180;3735;50.136;11.062;2023-03-23T06:17:15;97352.00;;;13.60
7389;BMP180;3735;50.136;11.062;2023-03-23T06:19:43;97347.00;;;13.60
7389;BMP180;3735;50.136;11.062;2023-03-23T06:22:09;97348.00;;;13.50
7389;BMP180;3735;50.136;11.062;2023-03-23T06:24:36;97343.00;;;13.50
7389;BMP180;3735;50.136;11.062;2023-03-23T06:27:02;97349.00;;;13.50
7389;BMP180;3735;50.136;11.062;2023-03-23T06:29:30;97362.00;;;13.30
7389;BMP180;3735;50.136;11.062;2023-03-23T06:32:02;97366.00;;;13.30
7389;BMP180;3735;50.136;11.062;2023-03-23T06:34:28;97362.00;;;13.20
7389;BMP180;3735;50.136;11.062;2023-03-23T06:36:56;97369.00;;;13.20
7389;BMP180;3735;50.136;11.062;2023-03-23T06:39:21;97376.00;;;13.10
7389;BMP180;3735;50.136;11.062;2023-03-23T06:41:48;97390.00;;;12.90
7389;BMP180;3735;50.136;11.062;2023-03-23T06:44:14;97392.00;;;12.80
7389;BMP180;3735;50.136;11.062;2023-03-23T06:46:42;97406.00;;;12.50
7389;BMP180;3735;50.136;11.062;2023-03-23T06:49:09;97398.00;;;12.30
7389;BMP180;3735;50.136;11.062;2023-03-23T06:51:36;97407.00;;;12.20
7389;BMP180;3735;50.136;11.062;2023-03-23T06:54:03;97407.00;;;12.10
7389;BMP180;3735;50.136;11.062;2023-03-23T06:56:31;97402.00;;;12.00
7389;BMP180;3735;50.136;11.062;2023-03-23T06:58:56;97410.00;;;11.90
7389;BMP180;3735;50.136;11.062;2023-03-23T07:01:23;97413.00;;;12.00
7389;BMP180;3735;50.136;11.062;2023-03-23T07:03:49;97415.00;;;11.80
7389;BMP180;3735;50.136;11.062;2023-03-23T07:06:15;97421.00;;;11.70
7389;BMP180;3735;50.136;11.062;2023-03-23T07:08:41;97421.00;;;11.70
7389;BMP180;3735;50.136;11.062;2023-03-23T07:11:07;97418.00;;;11.90
7389;BMP180;3735;50.136;11.062;2023-03-23T07:13:33;97426.00;;;12.00
7389;BMP180;3735;50.136;11.062;2023-03-23T07:15:59;97424.00;;;12.00
7389;BMP180;3735;50.136;11.062;2023-03-23T07:18:26;97425.00;;;12.00
7389;BMP180;3735;50.136;11.062;2023-03-23T07:20:53;97424.00;;;12.10
7389;BMP180;3735;50.136;11.062;2023-03-23T07:23:19;97425.00;;;12.10
7389;BMP180;3735;50.136;11.062;2023-03-23T07:25:45;97410.00;;;12.10
7389;BMP180;3735;50.136;11.062;2023-03-23T07:28:13;97430.00;;;12.00
7389;BMP180;3735;50.136;11.062;2023-03-23T07:30:39;97439.00;;;11.90
7389;BMP180;3735;50.136;11.062;2023-03-23T07:33:09;97439.00;;;11.80
7389;BMP180;3735;50.136;11.062;2023-03-23T07:35:35;97434.00;;;11.80
7389;BMP180;3735;50.136;11.062;2023-03-23T07:38:02;97433.00;;;11.70
7389;BMP180;3735;50.136;11.062;2023-03-23T07:40:29;97438.00;;;11.60
7389;BMP180;3735;50.136;11.062;2023-03-23T07:42:59;97432.00;;;11.50
7389;BMP180;3735;50.136;11.062;2023-03-23T07:45:25;97438.00;;;11.50
7389;BMP180;3735;50.136;11.062;2023-03-23T07:47:52;97448.00;;;11.50
7389;BMP180;3735;50.136;11.062;2023-03-23T07:50:19;97451.00;;;11.50
7389;BMP180;3735;50.136;11.062;2023-03-23T07:52:48;97450.00;;;11.50
7389;BMP180;3735;50.136;11.062;2023-03-23T07:55:14;97458.00;;;11.40
7389;BMP180;3735;50.136;11.062;2023-03-23T07:57:45;97448.00;;;11.40
7389;BMP180;3735;50.136;11.062;2023-03-23T08:00:13;97451.00;;;11.30
7389;BMP180;3735;50.136;11.062;2023-03-23T08:02:49;97467.00;;;11.40
7389;BMP180;3735;50.136;11.062;2023-03-23T08:05:19;97468.00;;;11.40
7389;BMP180;3735;50.136;11.062;2023-03-23T08:07:46;97470.00;;;11.30
7389;BMP180;3735;50.136;11.062;2023-03-23T08:10:14;97461.00;;;11.30
7389;BMP180;3735;50.136;11.062;2023-03-23T08:12:42;97455.00;;;11.40
7389;BMP180;3735;50.136;11.062;2023-03-23T08:15:11;97462.00;;;11.40
7389;BMP180;3735;50.136;11.062;2023-03-23T08:17:41;97442.00;;;11.50
7389;BMP180;3735;50.136;11.062;2023-03-23T08:20:10;97452.00;;;11.60
7389;BMP180;3735;50.136;11.062;2023-03-23T08:22:40;97450.00;;;11.70
7389;BMP180;3735;50.136;11.062;2023-03-23T08:25:09;97450.00;;;11.70
7389;BMP180;3735;50.136;11.062;2023-03-23T08:27:35;97449.00;;;11.80
7389;BMP180;3735;50.136;11.062;2023-03-23T08:30:04;97460.00;;;11.70
7389;BMP180;3735;50.136;11.062;2023-03-23T08:32:31;97457.00;;;11.80
7389;BMP180;3735;50.136;11.062;2023-03-23T08:34:57;97460.00;;;11.80
7389;BMP180;3735;50.136;11.062;2023-03-23T08:37:23;97465.00;;;11.80
7389;BMP180;3735;50.136;11.062;2023-03-23T08:39:55;97467.00;;;11.80
7389;BMP180;3735;50.136;11.062;2023-03-23T08:42:24;97465.00;;;11.70
7389;BMP180;3735;50.136;11.062;2023-03-23T08:44:51;97463.00;;;11.70
7389;BMP180;3735;50.136;11.062;2023-03-23T08:47:17;97464.00;;;11.70
7389;BMP180;3735;50.136;11.062;2023-03-23T08:49:43;97466.00;;;11.70
7389;BMP180;3735;50.136;11.062;2023-03-23T08:52:11;97468.00;;;11.70
7389;BMP180;3735;50.136;11.062;2023-03-23T08:54:37;97466.00;;;11.80
7389;BMP180;3735;50.136;11.062;2023-03-23T08:57:03;97461.00;;;11.90
7389;BMP180;3735;50.136;11.062;2023-03-23T08:59:29;97462.00;;;12.10
7389;BMP180;3735;50.136;11.062;2023-03-23T09:01:56;97441.00;;;12.20
7389;BMP180;3735;50.136;11.062;2023-03-23T09:04:21;97463.00;;;12.30
7389;BMP180;3735;50.136;11.062;2023-03-23T09:06:47;97443.00;;;12.40
7389;BMP180;3735;50.136;11.062;2023-03-23T09:09:14;97458.00;;;12.50
7389;BMP180;3735;50.136;11.062;2023-03-23T09:11:40;97457.00;;;12.70
7389;BMP180;3735;50.136;11.062;2023-03-23T09:14:07;97457.00;;;13.00
7389;BMP180;3735;50.136;11.062;2023-03-23T09:16:34;97460.00;;;13.10
7389;BMP180;3735;50.136;11.062;2023-03-23T09:19:01;97459.00;;;13.30
7389;BMP180;3735;50.136;11.062;2023-03-23T09:21:28;97463.00;;;13.50
7389;BMP180;3735;50.136;11.062;2023-03-23T09:23:56;97476.00;;;13.70
7389;BMP180;3735;50.136;11.062;2023-03-23T09:26:25;97470.00;;;13.60
7389;BMP180;3735;50.136;11.062;2023-03-23T09:28:51;97457.00;;;13.90
7389;BMP180;3735;50.136;11.062;2023-03-23T09:31:18;97466.00;;;13.90
7389;BMP180;3735;50.136;11.062;2023-03-23T09:33:46;97457.00;;;14.00
7389;BMP180;3735;50.136;11.062;2023-03-23T09:36:13;97466.00;;;14.00
7389;BMP180;3735;50.136;11.062;2023-03-23T09:38:41;97457.00;;;14.20
7389;BMP180;3735;50.136;11.062;2023-03-23T09:45:01;97457.00;;;14.40
7389;BMP180;3735;50.136;11.062;2023-03-23T09:49:57;97464.00;;;14.70
7389;BMP180;3735;50.136;11.062;2023-03-23T09:52:48;97464.00;;;14.90
7389;BMP180;3735;50.136;11.062;2023-03-23T09:55:18;97447.00;;;14.90
7389;BMP180;3735;50.136;11.062;2023-03-23T09:58:18;97465.00;;;15.00
7389;BMP180;3735;50.136;11.062;2023-03-23T10:01:02;97470.00;;;14.80
7389;BMP180;3735;50.136;11.062;2023-03-23T10:03:40;97473.00;;;14.60
7389;BMP180;3735;50.136;11.062;2023-03-23T10:06:13;97480.00;;;14.70
7389;BMP180;3735;50.136;11.062;2023-03-23T10:08:47;97480.00;;;14.60
7389;BMP180;3735;50.136;11.062;2023-03-23T10:15:14;97494.00;;;14.70
7389;BMP180;3735;50.136;11.062;2023-03-23T10:17:44;97485.00;;;14.70
7389;BMP180;3735;50.136;11.062;2023-03-23T10:20:45;97496.00;;;14.60
7389;BMP180;3735;50.136;11.062;2023-03-23T10:28:42;97497.00;;;14.80
7389;BMP180;3735;50.136;11.062;2023-03-23T10:31:23;97505.00;;;14.70
7389;BMP180;3735;50.136;11.062;2023-03-23T10:33:54;97510.00;;;14.80
7389;BMP180;3735;50.136;11.062;2023-03-23T10:39:23;97498.00;;;15.20
7389;BMP180;3735;50.136;11.062;2023-03-23T10:41:49;97497.00;;;15.10
7389;BMP180;3735;50.136;11.062;2023-03-23T10:44:23;97504.00;;;15.00
7389;BMP180;3735;50.136;11.062;2023-03-23T10:52:35;97512.00;;;14.00
7389;BMP180;3735;50.136;11.062;2023-03-23T10:55:22;97511.00;;;13.80
7389;BMP180;3735;50.136;11.062;2023-03-23T10:58:10;97487.00;;;13.60
7389;BMP180;3735;50.136;11.062;2023-03-23T11:00:44;97504.00;;;13.50
7389;BMP180;3735;50.136;11.062;2023-03-23T11:05:50;97515.00;;;13.60
7389;BMP180;3735;50.136;11.062;2023-03-23T11:08:23;97520.00;;;13.50
7389;BMP180;3735;50.136;11.062;2023-03-23T11:11:19;97518.00;;;13.70
7389;BMP180;3735;50.136;11.062;2023-03-23T11:13:46;97510.00;;;13.80
7389;BMP180;3735;50.136;11.062;2023-03-23T11:16:31;97510.00;;;13.80
7389;BMP180;3735;50.136;11.062;2023-03-23T11:18:59;97495.00;;;14.10
7389;BMP180;3735;50.136;11.062;2023-03-23T11:21:27;97510.00;;;14.30
7389;BMP180;3735;50.136;11.062;2023-03-23T11:23:59;97522.00;;;14.60
7389;BMP180;3735;50.136;11.062;2023-03-23T11:26:32;97510.00;;;14.80
7389;BMP180;3735;50.136;11.062;2023-03-23T11:31:51;97520.00;;;14.40
7389;BMP180;3735;50.136;11.062;2023-03-23T11:34:25;97522.00;;;14.80
7389;BMP180;3735;50.136;11.062;2023-03-23T11:37:02;97522.00;;;14.80
7389;BMP180;3735;50.136;11.062;2023-03-23T11:39:32;97522.00;;;15.10
7389;BMP180;3735;50.136;11.062;2023-03-23T11:42:17;97513.00;;;15.40
7389;BMP180;3735;50.136;11.062;2023-03-23T11:44:44;97516.00;;;15.30
7389;BMP180;3735;50.136;11.062;2023-03-23T11:47:39;97495.00;;;15.00
7389;BMP180;3735;50.136;11.062;2023-03-23T11:53:00;97481.00;;;15.10
7389;BMP180;3735;50.136;11.062;2023-03-23T11:56:04;97498.00;;;15.30
7389;BMP180;3735;50.136;11.062;2023-03-23T11:58:31;97500.00;;;15.50
7389;BMP180;3735;50.136;11.062;2023-03-23T12:06:52;97515.00;;;15.70
7389;BMP180;3735;50.136;11.062;2023-03-23T12:12:31;97513.00;;;15.10
7389;BMP180;3735;50.136;11.062;2023-03-23T12:21:25;97515.00;;;14.90
7389;BMP180;3735;50.136;11.062;2023-03-23T12:29:28;97520.00;;;14.70
7389;BMP180;3735;50.136;11.062;2023-03-23T12:34:54;97518.00;;;15.00
7389;BMP180;3735;50.136;11.062;2023-03-23T12:47:04;97500.00;;;15.20
7389;BMP180;3735;50.136;11.062;2023-03-23T12:49:44;97510.00;;;15.20
7389;BMP180;3735;50.136;11.062;2023-03-23T12:52:23;97495.00;;;14.90
7389;BMP180;3735;50.136;11.062;2023-03-23T12:55:46;97494.00;;;14.80
7389;BMP180;3735;50.136;11.062;2023-03-23T12:58:28;97496.00;;;14.70
7389;BMP180;3735;50.136;11.062;2023-03-23T13:01:12;97500.00;;;14.60
7389;BMP180;3735;50.136;11.062;2023-03-23T13:03:57;97489.00;;;14.90
7389;BMP180;3735;50.136;11.062;2023-03-23T13:11:43;97488.00;;;15.40
7389;BMP180;3735;50.136;11.062;2023-03-23T13:14:41;97472.00;;;15.20
7389;BMP180;3735;50.136;11.062;2023-03-23T13:23:22;97462.00;;;14.90
7389;BMP180;3735;50.136;11.062;2023-03-23T13:26:09;97470.00;;;14.90
7389;BMP180;3735;50.136;11.062;2023-03-23T13:31:29;97465.00;;;14.60
7389;BMP180;3735;50.136;11.062;2023-03-23T13:36:42;97453.00;;;14.30
7389;BMP180;3735;50.136;11.062;2023-03-23T13:39:29;97460.00;;;14.20
7389;BMP180;3735;50.136;11.062;2023-03-23T13:49:59;97446.00;;;14.50
7389;BMP180;3735;50.136;11.062;2023-03-23T14:05:36;97437.00;;;14.70
7389;BMP180;3735;50.136;11.062;2023-03-23T14:10:53;97424.00;;;14.60
7389;BMP180;3735;50.136;11.062;2023-03-23T14:13:32;97417.00;;;14.70
7389;BMP180;3735;50.136;11.062;2023-03-23T14:16:23;97421.00;;;14.60
7389;BMP180;3735;50.136;11.062;2023-03-23T14:18:58;97401.00;;;14.50
7389;BMP180;3735;50.136;11.062;2023-03-23T14:21:38;97409.00;;;14.20
7389;BMP180;3735;50.136;11.062;2023-03-23T14:24:31;97412.00;;;14.40
7389;BMP180;3735;50.136;11.062;2023-03-23T14:29:36;97416.00;;;14.70
7389;BMP180;3735;50.136;11.062;2023-03-23T14:32:06;97435.00;;;14.60
7389;BMP180;3735;50.136;11.062;2023-03-23T14:34:33;97404.00;;;14.70
7389;BMP180;3735;50.136;11.062;2023-03-23T14:37:01;97404.00;;;14.90
7389;BMP180;3735;50.136;11.062;2023-03-23T14:39:30;97421.00;;;14.90
7389;BMP180;3735;50.136;11.062;2023-03-23T14:42:05;97423.00;;;14.90
7389;BMP180;3735;50.136;11.062;2023-03-23T14:44:40;97407.00;;;14.90
7389;BMP180;3735;50.136;11.062;2023-03-23T14:47:18;97431.00;;;14.60
7389;BMP180;3735;50.136;11.062;2023-03-23T14:49:45;97434.00;;;14.50
7389;BMP180;3735;50.136;11.062;2023-03-23T14:52:17;97438.00;;;14.40
7389;BMP180;3735;50.136;11.062;2023-03-23T14:54:45;97435.00;;;14.40
7389;BMP180;3735;50.136;11.062;2023-03-23T14:57:28;97429.00;;;14.30
7389;BMP180;3735;50.136;11.062;2023-03-23T14:59:56;97444.00;;;14.30
7389;BMP180;3735;50.136;11.062;2023-03-23T15:02:32;97437.00;;;14.40
7389;BMP180;3735;50.136;11.062;2023-03-23T15:05:14;97440.00;;;14.30
7389;BMP180;3735;50.136;11.062;2023-03-23T15:07:44;97435.00;;;14.50
7389;BMP180;3735;50.136;11.062;2023-03-23T15:10:18;97437.00;;;14.40
7389;BMP180;3735;50.136;11.062;2023-03-23T15:12:47;97446.00;;;14.50
7389;BMP180;3735;50.136;11.062;2023-03-23T15:15:28;97436.00;;;14.40
7389;BMP180;3735;50.136;11.062;2023-03-23T15:17:56;97434.00;;;14.40
7389;BMP180;3735;50.136;11.062;2023-03-23T15:20:29;97432.00;;;14.30
7389;BMP180;3735;50.136;11.062;2023-03-23T15:23:04;97428.00;;;14.20
7389;BMP180;3735;50.136;11.062;2023-03-23T15:25:33;97447.00;;;14.20
7389;BMP180;3735;50.136;11.062;2023-03-23T15:28:21;97446.00;;;14.20
7389;BMP180;3735;50.136;11.062;2023-03-23T15:30:54;97447.00;;;14.20
7389;BMP180;3735;50.136;11.062;2023-03-23T15:33:23;97454.00;;;14.20
7389;BMP180;3735;50.136;11.062;2023-03-23T15:35:55;97433.00;;;14.30
7389;BMP180;3735;50.136;11.062;2023-03-23T15:38:28;97432.00;;;14.30
7389;BMP180;3735;50.136;11.062;2023-03-23T15:40:58;97431.00;;;14.40
7389;BMP180;3735;50.136;11.062;2023-03-23T15:49:08;97437.00;;;14.30
7389;BMP180;3735;50.136;11.062;2023-03-23T15:51:36;97425.00;;;14.30
7389;BMP180;3735;50.136;11.062;2023-03-23T15:54:03;97418.00;;;14.20
7389;BMP180;3735;50.136;11.062;2023-03-23T15:56:29;97430.00;;;14.30
7389;BMP180;3735;50.136;11.062;2023-03-23T15:58:58;97429.00;;;14.10
7389;BMP180;3735;50.136;11.062;2023-03-23T16:01:28;97431.00;;;14.10
7389;BMP180;3735;50.136;11.062;2023-03-23T16:06:25;97423.00;;;14.10
7389;BMP180;3735;50.136;11.062;2023-03-23T16:08:56;97433.00;;;14.10
7389;BMP180;3735;50.136;11.062;2023-03-23T16:11:25;97434.00;;;14.00
7389;BMP180;3735;50.136;11.062;2023-03-23T16:13:51;97440.00;;;14.00
7389;BMP180;3735;50.136;11.062;2023-03-23T16:16:24;97447.00;;;14.00
7389;BMP180;3735;50.136;11.062;2023-03-23T16:18:52;97446.00;;;14.00
7389;BMP180;3735;50.136;11.062;2023-03-23T16:21:17;97448.00;;;14.00
7389;BMP180;3735;50.136;11.062;2023-03-23T16:23:43;97451.00;;;13.90
7389;BMP180;3735;50.136;11.062;2023-03-23T16:26:14;97448.00;;;13.90
7389;BMP180;3735;50.136;11.062;2023-03-23T16:28:41;97456.00;;;13.90
7389;BMP180;3735;50.136;11.062;2023-03-23T16:31:08;97451.00;;;13.90
7389;BMP180;3735;50.136;11.062;2023-03-23T16:33:33;97449.00;;;14.00
7389;BMP180;3735;50.136;11.062;2023-03-23T16:35:59;97451.00;;;13.90
7389;BMP180;3735;50.136;11.062;2023-03-23T16:38:25;97460.00;;;13.80
7389;BMP180;3735;50.136;11.062;2023-03-23T16:40:51;97453.00;;;13.90
7389;BMP180;3735;50.136;11.062;2023-03-23T16:43:17;97456.00;;;13.80
7389;BMP180;3735;50.136;11.062;2023-03-23T16:45:45;97462.00;;;13.70
7389;BMP180;3735;50.136;11.062;2023-03-23T16:48:14;97465.00;;;13.70
7389;BMP180;3735;50.136;11.062;2023-03-23T16:50:42;97461.00;;;13.60
7389;BMP180;3735;50.136;11.062;2023-03-23T16:53:09;97468.00;;;13.70
7389;BMP180;3735;50.136;11.062;2023-03-23T16:55:37;97466.00;;;13.60
7389;BMP180;3735;50.136;11.062;2023-03-23T16:58:04;97469.00;;;13.60